sensor_id;sensor_type;location;lat;lon;timestamp;P1;durP1;ratioP1;P2;durP2;ratioP2
12179;SDS011;6153;51.490;6.586;2022-09-09T10:56:21;114.82;;;109.80;;
12179;SDS011;6153;51.490;6.586;2022-09-09T11:02:30;116.15;;;110.97;;
12179;SDS011;6153;51.490;6.586;2022-09-09T11:08:52;134.05;;;128.05;;
12179;SDS011;6153;51.490;6.586;2022-09-09T11:11:54;131.43;;;125.45;;
12179;SDS011;6153;51.490;6.586;2022-09-09T11:15:03;67.53;;;64.72;;
12179;SDS011;6153;51.490;6.586;2022-09-09T11:18:20;92.05;;;87.95;;
12179;SDS011;6153;51.490;6.586;2022-09-09T11:21:24;81.23;;;77.40;;
12179;SDS011;6153;51.490;6.586;2022-09-09T11:24:44;89.00;;;85.10;;
12179;SDS011;6153;51.490;6.586;2022-09-09T11:27:53;103.65;;;98.78;;
12179;SDS011;6153;51.490;6.586;2022-09-09T11:38:01;113.43;;;108.32;;
12179;SDS011;6153;51.490;6.586;2022-09-09T11:41:11;117.80;;;112.18;;
12179;SDS011;6153;51.490;6.586;2022-09-09T11:44:17;111.40;;;106.40;;
12179;SDS011;6153;51.490;6.586;2022-09-09T11:47:27;103.55;;;98.95;;
12179;SDS011;6153;51.490;6.586;2022-09-09T11:50:31;116.13;;;111.07;;
12179;SDS011;6153;51.490;6.586;2022-09-09T11:53:34;101.22;;;96.80;;
12179;SDS011;6153;51.490;6.586;2022-09-09T11:56:48;107.13;;;102.47;;
12179;SDS011;6153;51.490;6.586;2022-09-09T11:59:52;115.50;;;110.53;;
12179;SDS011;6153;51.490;6.586;2022-09-09T12:02:53;116.57;;;111.28;;
12179;SDS011;6153;51.490;6.586;2022-09-09T12:05:53;124.60;;;119.10;;
12179;SDS011;6153;51.490;6.586;2022-09-09T12:08:58;114.82;;;109.65;;
12179;SDS011;6153;51.490;6.586;2022-09-09T12:12:29;121.38;;;115.97;;
12179;SDS011;6153;51.490;6.586;2022-09-09T12:15:31;116.50;;;111.40;;
12179;SDS011;6153;51.490;6.586;2022-09-09T12:18:36;123.03;;;117.57;;
12179;SDS011;6153;51.490;6.586;2022-09-09T12:31:32;11.55;;;10.98;;
12179;SDS011;6153;51.490;6.586;2022-09-09T12:38:01;16.52;;;15.82;;
12179;SDS011;6153;51.490;6.586;2022-09-09T12:41:04;25.30;;;24.05;;
12179;SDS011;6153;51.490;6.586;2022-09-09T12:44:05;25.27;;;24.08;;
12179;SDS011;6153;51.490;6.586;2022-09-09T12:47:09;32.88;;;31.35;;
12179;SDS011;6153;51.490;6.586;2022-09-09T12:50:18;26.75;;;25.65;;
12179;SDS011;6153;51.490;6.586;2022-09-09T12:56:32;33.72;;;32.40;;
12179;SDS011;6153;51.490;6.586;2022-09-09T12:59:37;48.83;;;46.53;;
12179;SDS011;6153;51.490;6.586;2022-09-09T13:02:55;46.88;;;44.88;;
12179;SDS011;6153;51.490;6.586;2022-09-09T13:06:11;51.90;;;49.65;;
12179;SDS011;6153;51.490;6.586;2022-09-09T13:09:14;62.63;;;60.03;;
12179;SDS011;6153;51.490;6.586;2022-09-09T13:12:19;67.03;;;64.05;;
12179;SDS011;6153;51.490;6.586;2022-09-09T13:15:23;76.27;;;72.97;;
12179;SDS011;6153;51.490;6.586;2022-09-09T13:18:29;58.30;;;55.88;;
12179;SDS011;6153;51.490;6.586;2022-09-09T13:21:34;47.63;;;45.67;;
12179;SDS011;6153;51.490;6.586;2022-09-09T13:24:38;42.25;;;40.25;;
12179;SDS011;6153;51.490;6.586;2022-09-09T13:27:40;44.83;;;42.97;;
12179;SDS011;6153;51.490;6.586;2022-09-09T13:30:42;49.53;;;47.45;;
12179;SDS011;6153;51.490;6.586;2022-09-09T13:33:44;73.68;;;70.57;;
12179;SDS011;6153;51.490;6.586;2022-09-09T13:36:46;72.00;;;68.70;;
12179;SDS011;6153;51.490;6.586;2022-09-09T13:39:52;70.85;;;67.75;;
12179;SDS011;6153;51.490;6.586;2022-09-09T13:42:55;74.15;;;70.75;;
12179;SDS011;6153;51.490;6.586;2022-09-09T13:45:58;77.20;;;73.82;;
12179;SDS011;6153;51.490;6.586;2022-09-09T13:49:16;86.40;;;82.63;;
12179;SDS011;6153;51.490;6.586;2022-09-09T13:52:20;86.32;;;82.35;;
12179;SDS011;6153;51.490;6.586;2022-09-09T13:55:22;92.82;;;88.75;;
12179;SDS011;6153;51.490;6.586;2022-09-09T13:58:24;97.50;;;93.30;;
12179;SDS011;6153;51.490;6.586;2022-09-09T14:01:25;102.15;;;97.75;;
12179;SDS011;6153;51.490;6.586;2022-09-09T14:04:27;100.00;;;95.70;;
12179;SDS011;6153;51.490;6.586;2022-09-09T14:07:28;101.13;;;96.57;;
12179;SDS011;6153;51.490;6.586;2022-09-09T14:13:29;107.17;;;102.47;;
12179;SDS011;6153;51.490;6.586;2022-09-09T14:16:29;102.80;;;98.37;;
12179;SDS011;6153;51.490;6.586;2022-09-09T14:19:30;122.55;;;117.05;;
12179;SDS011;6153;51.490;6.586;2022-09-09T14:22:31;288.73;;;274.42;;
